Time;durP1;ratioP1;P1;durP2;ratioP2;P2;SDS_P1;SDS_P2;PMS_P1;PMS_P2;Temp;Humidity;BMP_temperature;BMP_pressure;BME280_temperature;BME280_humidity;BME280_pressure;Samples;Min_cycle;Max_cycle;Signal;HPM_P1;HPM_P2
2022/06/18 00:02:28;;;;;;;;;;;;;;;15.42;68.60;100013.91;1691774;85;20224;-80
2022/06/18 00:05:35;;;;;;;;;;;;;;;15.43;68.78;100014.75;1691734;85;20380;-80
2022/06/18 00:08:39;;;;;;;;;;;;;;;15.41;68.90;100012.22;1690363;85;20232;-80
2022/06/18 00:15:05;;;;;;;;;;;;;;;15.44;68.16;100015.09;1691855;85;20566;-83
2022/06/18 00:18:11;;;;;;;;;;;;;;;15.45;68.30;100018.16;1691377;85;20183;-80
2022/06/18 00:21:15;;;;;;;;;;;;;;;15.47;68.91;100012.73;1690402;85;20196;-83
2022/06/18 00:24:24;;;;;;;;;;;;;;;15.52;69.73;100018.45;1690479;85;20180;-80
2022/06/18 00:27:30;;;;;;;;;;;;;;;15.55;70.06;100018.02;1691751;85;20242;-83
2022/06/18 00:30:36;;;;;;;;;;;;;;;15.58;70.27;100021.73;1691191;85;20196;-80
2022/06/18 00:33:40;;;;;;;;;;;;;;;15.60;70.00;100018.75;1691181;85;20227;-81
2022/06/18 00:36:45;;;;;;;;;;;;;;;15.58;69.54;100018.14;1692143;85;20463;-80
2022/06/18 00:39:51;;;;;;;;;;;;;;;15.55;69.66;100013.89;1691805;85;20377;-81
2022/06/18 00:42:55;;;;;;;;;;;;;;;15.55;70.69;100022.69;1691252;85;20254;-80
2022/06/18 00:46:06;;;;;;;;;;;;;;;15.57;71.35;100021.93;1697641;84;20200;-82
2022/06/18 00:49:25;;;;;;;;;;;;;;;15.59;71.86;100020.66;1690325;85;20228;-83
2022/06/18 00:52:35;;;;;;;;;;;;;;;15.64;72.27;100026.09;1690233;85;20691;-80
2022/06/18 00:55:43;;;;;;;;;;;;;;;15.66;72.50;100022.58;1691971;85;20179;-80
2022/06/18 00:58:51;;;;;;;;;;;;;;;15.71;72.58;100018.11;1693631;84;20196;-84
2022/06/18 01:01:55;;;;;;;;;;;;;;;15.77;72.50;100019.17;1701162;83;20200;-83
2022/06/18 01:04:59;;;;;;;;;;;;;;;15.84;72.26;100016.69;1701243;84;20224;-80
2022/06/18 01:08:07;;;;;;;;;;;;;;;15.92;72.11;100019.75;1699468;84;20243;-80
2022/06/18 01:11:14;;;;;;;;;;;;;;;15.96;72.15;100021.01;1701120;84;20251;-81
2022/06/18 01:14:20;;;;;;;;;;;;;;;15.97;71.31;100019.94;1701432;84;20204;-81
2022/06/18 01:17:25;;;;;;;;;;;;;;;15.99;71.20;100014.19;1699804;83;20220;-83
2022/06/18 01:20:30;;;;;;;;;;;;;;;16.02;71.27;100009.09;1701510;84;20572;-84
2022/06/18 01:23:44;;;;;;;;;;;;;;;16.06;71.76;100014.48;1700470;84;20224;-80
2022/06/18 01:26:51;;;;;;;;;;;;;;;16.09;72.01;100014.06;1700448;84;20488;-80
2022/06/18 01:29:54;;;;;;;;;;;;;;;16.13;72.07;100017.20;1701140;84;20228;-84
2022/06/18 01:33:01;;;;;;;;;;;;;;;16.10;71.82;100014.36;1701223;83;20461;-80
2022/06/18 01:36:08;;;;;;;;;;;;;;;16.09;71.71;100011.80;1699518;84;20224;-83
2022/06/18 01:39:19;;;;;;;;;;;;;;;16.09;71.81;100010.42;1701312;84;20220;-83
2022/06/18 01:42:38;;;;;;;;;;;;;;;16.12;71.88;100011.91;1701017;84;20204;-81
2022/06/18 01:45:39;;;;;;;;;;;;;;;16.16;71.94;100014.02;1670866;84;20600;-84
2022/06/18 01:48:44;;;;;;;;;;;;;;;16.19;71.93;100021.86;1701098;84;20239;-80
2022/06/18 01:51:53;;;;;;;;;;;;;;;16.17;71.61;100024.52;1680714;84;20204;-81
2022/06/18 01:55:01;;;;;;;;;;;;;;;16.10;71.30;100028.16;1700890;84;20616;-80
2022/06/18 01:58:11;;;;;;;;;;;;;;;16.01;71.35;100034.98;1701564;84;20580;-84
2022/06/18 02:01:21;;;;;;;;;;;;;;;15.87;71.38;100031.13;1710767;82;20196;-84
2022/06/18 02:04:27;;;;;;;;;;;;;;;15.73;71.61;100026.18;1736028;82;20598;-80
2022/06/18 02:07:30;;;;;;;;;;;;;;;15.84;71.99;100031.02;1736795;82;20601;-81
2022/06/18 02:10:47;;;;;;;;;;;;;;;16.08;71.70;100030.27;1736063;82;20289;-84
2022/06/18 02:13:55;;;;;;;;;;;;;;;16.26;71.27;100030.94;1734898;82;20209;-84
2022/06/18 02:16:48;;;;;;;;;;;;;;;16.34;71.37;100029.31;1725203;82;20667;-82
2022/06/18 02:19:57;;;;;;;;;;;;;;;16.41;72.14;100031.17;1706803;84;20200;-84
2022/06/18 02:23:02;;;;;;;;;;;;;;;16.41;72.38;100037.53;1705240;84;20216;-80
2022/06/18 02:26:07;;;;;;;;;;;;;;;16.31;72.40;100041.31;1707099;84;20620;-80
2022/06/18 02:29:11;;;;;;;;;;;;;;;16.19;72.58;100041.17;1705601;84;20209;-81
2022/06/18 02:32:16;;;;;;;;;;;;;;;16.13;73.32;100035.13;1705614;83;20259;-84
2022/06/18 02:35:23;;;;;;;;;;;;;;;16.15;73.97;100031.64;1707121;84;20211;-83
2022/06/18 02:38:28;;;;;;;;;;;;;;;16.22;74.54;100032.97;1706815;84;20216;-81
2022/06/18 02:41:32;;;;;;;;;;;;;;;16.30;74.91;100039.09;1706998;84;20890;-84
2022/06/18 02:44:37;;;;;;;;;;;;;;;16.39;75.00;100042.45;1706859;83;20239;-83
2022/06/18 02:47:42;;;;;;;;;;;;;;;16.48;74.92;100049.41;1707140;83;20225;-84
2022/06/18 02:50:48;;;;;;;;;;;;;;;16.54;74.36;100050.42;1706915;84;20227;-84
2022/06/18 02:53:51;;;;;;;;;;;;;;;16.57;74.16;100056.89;1707248;84;20228;-83
2022/06/18 02:56:56;;;;;;;;;;;;;;;16.59;74.60;100058.35;1707047;84;20199;-82
2022/06/18 03:00:00;;;;;;;;;;;;;;;16.65;74.74;100054.39;1705761;84;20204;-80
2022/06/18 03:03:00;;;;;;;;;;;;;;;16.72;74.67;100051.09;1703507;83;20627;-80
2022/06/18 03:05:56;;;;;;;;;;;;;;;16.79;74.48;100058.78;1704535;84;20663;-84
2022/06/18 03:08:58;;;;;;;;;;;;;;;16.83;74.29;100058.66;1703015;84;20655;-84
2022/06/18 03:12:09;;;;;;;;;;;;;;;16.89;74.36;100059.67;1703632;84;20212;-80
2022/06/18 03:15:14;;;;;;;;;;;;;;;16.93;74.59;100059.54;1702552;84;20219;-83
2022/06/18 03:18:22;;;;;;;;;;;;;;;16.99;74.41;100061.43;1703173;83;20196;-84
2022/06/18 03:21:36;;;;;;;;;;;;;;;17.07;74.32;100064.73;1703721;84;20616;-83
2022/06/18 03:24:44;;;;;;;;;;;;;;;17.17;74.23;100068.91;1704098;84;20224;-81
2022/06/18 03:27:46;;;;;;;;;;;;;;;17.27;74.38;100062.37;1703900;84;20223;-81
2022/06/18 03:30:51;;;;;;;;;;;;;;;17.38;74.31;100065.23;1704264;84;20200;-80
2022/06/18 03:33:57;;;;;;;;;;;;;;;17.54;73.96;100068.48;1703236;84;20227;-83
2022/06/18 03:37:01;;;;;;;;;;;;;;;17.71;73.79;100068.74;1702310;84;20196;-81
2022/06/18 03:40:05;;;;;;;;;;;;;;;17.88;73.21;100065.72;1704047;84;20204;-80
2022/06/18 03:43:09;;;;;;;;;;;;;;;18.08;72.58;100063.56;1702667;84;20235;-84
2022/06/18 03:46:16;;;;;;;;;;;;;;;18.28;71.58;100058.31;1707376;83;20596;-83
2022/06/18 03:49:32;;;;;;;;;;;;;;;18.47;70.84;100069.66;1733679;83;20206;-83
2022/06/18 03:52:36;;;;;;;;;;;;;;;18.65;70.21;100068.77;1732957;83;20610;-83
2022/06/18 03:55:41;;;;;;;;;;;;;;;18.84;69.84;100061.28;1733594;83;20202;-83
2022/06/18 03:58:46;;;;;;;;;;;;;;;18.98;69.65;100064.70;1733224;83;20217;-80
2022/06/18 04:01:52;;;;;;;;;;;;;;;19.11;69.16;100070.87;1726859;83;20212;-81
2022/06/18 04:04:58;;;;;;;;;;;;;;;19.25;68.88;100070.66;1720717;83;20197;-80
2022/06/18 04:08:02;;;;;;;;;;;;;;;19.40;68.53;100068.25;1719907;83;20206;-80
2022/06/18 04:11:07;;;;;;;;;;;;;;;19.53;67.66;100061.09;1720725;83;20225;-84
2022/06/18 04:13:59;;;;;;;;;;;;;;;19.66;66.89;100056.69;1720122;83;20688;-80
2022/06/18 04:16:53;;;;;;;;;;;;;;;19.78;66.35;100061.41;1725708;82;20186;-84
2022/06/18 04:19:45;;;;;;;;;;;;;;;19.87;65.82;100053.85;1730448;83;20197;-80
2022/06/18 04:22:30;;;;;;;;;;;;;;;20.00;65.64;100056.08;1729959;83;20182;-80
2022/06/18 04:25:24;;;;;;;;;;;;;;;20.10;65.27;100052.97;1728642;82;20209;-80
2022/06/18 04:28:29;;;;;;;;;;;;;;;20.21;64.93;100051.24;1729072;83;20194;-84
2022/06/18 04:31:35;;;;;;;;;;;;;;;20.30;64.46;100053.09;1726404;83;20450;-81
2022/06/18 04:34:41;;;;;;;;;;;;;;;20.41;64.14;100058.59;1719334;83;20202;-80
2022/06/18 04:37:49;;;;;;;;;;;;;;;20.54;63.80;100049.71;1719287;83;20249;-80
2022/06/18 04:40:59;;;;;;;;;;;;;;;20.62;62.67;100054.88;1719451;83;20217;-83
2022/06/18 04:44:06;;;;;;;;;;;;;;;20.73;62.20;100059.53;1719701;83;20241;-83
2022/06/18 04:47:13;;;;;;;;;;;;;;;20.80;62.30;100061.63;1720674;83;20197;-84
2022/06/18 04:50:12;;;;;;;;;;;;;;;20.80;62.05;100066.34;1719202;83;20194;-84
2022/06/18 04:53:18;;;;;;;;;;;;;;;20.83;61.94;100073.61;1719886;83;20637;-80
2022/06/18 04:56:26;;;;;;;;;;;;;;;20.90;61.69;100076.25;1720831;83;20228;-80
2022/06/18 04:59:29;;;;;;;;;;;;;;;20.97;61.39;100078.31;1719359;83;20221;-84
2022/06/18 05:02:34;;;;;;;;;;;;;;;21.01;61.01;100075.88;1720240;83;20197;-84
2022/06/18 05:05:41;;;;;;;;;;;;;;;21.05;60.79;100082.08;1721454;82;20252;-84
2022/06/18 05:09:02;;;;;;;;;;;;;;;21.11;60.68;100064.94;1719307;83;20609;-83
2022/06/18 05:12:20;;;;;;;;;;;;;;;21.23;60.49;100060.16;1720694;83;20253;-84
2022/06/18 05:15:24;;;;;;;;;;;;;;;21.39;59.64;100062.11;1720523;83;20660;-84
2022/06/18 05:18:30;;;;;;;;;;;;;;;21.52;57.93;100055.36;1729348;83;20202;-81
2022/06/18 05:21:35;;;;;;;;;;;;;;;21.63;57.17;100057.74;1730840;83;20205;-81
2022/06/18 05:24:40;;;;;;;;;;;;;;;21.73;57.13;100064.85;1729223;83;20359;-84
2022/06/18 05:27:45;;;;;;;;;;;;;;;21.83;57.08;100068.33;1728772;83;20198;-81
2022/06/18 05:30:53;;;;;;;;;;;;;;;21.88;56.64;100062.87;1729700;82;20222;-84
2022/06/18 05:34:01;;;;;;;;;;;;;;;21.99;56.52;100072.20;1729198;83;20222;-80
2022/06/18 05:37:07;;;;;;;;;;;;;;;22.11;55.32;100075.20;1730485;83;20205;-83
2022/06/18 05:40:12;;;;;;;;;;;;;;;22.24;55.24;100078.69;1730472;83;20202;-80
2022/06/18 05:43:16;;;;;;;;;;;;;;;22.37;55.42;100078.30;1730502;83;20232;-80
2022/06/18 05:46:22;;;;;;;;;;;;;;;22.55;55.10;100080.75;1724557;83;20207;-84
2022/06/18 05:49:27;;;;;;;;;;;;;;;22.78;53.92;100082.41;1700229;84;20703;-83
2022/06/18 05:52:27;;;;;;;;;;;;;;;23.05;53.40;100081.02;1700936;84;20208;-80
2022/06/18 05:55:49;;;;;;;;;;;;;;;23.19;52.48;100080.04;1701208;84;20197;-80
2022/06/18 05:58:52;;;;;;;;;;;;;;;23.39;51.79;100076.61;1700068;84;20184;-81
2022/06/18 06:01:59;;;;;;;;;;;;;;;23.64;51.24;100082.41;1699725;83;20905;-80
2022/06/18 06:05:05;;;;;;;;;;;;;;;23.95;50.43;100074.25;1701781;84;20659;-80
2022/06/18 06:08:08;;;;;;;;;;;;;;;24.38;49.29;100077.84;1702809;84;20231;-83
2022/06/18 06:11:30;;;;;;;;;;;;;;;24.71;48.07;100079.36;1704583;84;20220;-84
2022/06/18 06:14:36;;;;;;;;;;;;;;;24.92;47.40;100078.83;1703336;84;20196;-80
2022/06/18 06:17:41;;;;;;;;;;;;;;;25.27;46.25;100081.45;1703725;83;20591;-84
2022/06/18 06:20:48;;;;;;;;;;;;;;;25.44;45.31;100081.42;1702819;84;20184;-84
2022/06/18 06:23:52;;;;;;;;;;;;;;;25.55;45.49;100076.69;1702895;84;20192;-84
2022/06/18 06:26:56;;;;;;;;;;;;;;;25.74;44.57;100073.58;1704140;84;20604;-84
2022/06/18 06:29:59;;;;;;;;;;;;;;;25.92;44.35;100068.52;1704599;84;20172;-84
2022/06/18 06:33:05;;;;;;;;;;;;;;;26.12;43.88;100066.23;1703629;83;20196;-81
2022/06/18 06:36:11;;;;;;;;;;;;;;;26.32;44.00;100071.77;1704008;84;20208;-84
2022/06/18 06:39:16;;;;;;;;;;;;;;;26.45;44.24;100073.98;1702696;84;20247;-84
2022/06/18 06:42:20;;;;;;;;;;;;;;;26.50;44.09;100076.77;1703956;84;20208;-81
2022/06/18 06:45:27;;;;;;;;;;;;;;;26.59;43.66;100077.58;1687360;84;20152;-84
2022/06/18 06:48:32;;;;;;;;;;;;;;;26.71;43.92;100080.30;1720253;83;20642;-80
2022/06/18 06:51:38;;;;;;;;;;;;;;;26.89;44.34;100073.18;1719734;83;20201;-84
2022/06/18 06:54:42;;;;;;;;;;;;;;;27.07;43.92;100073.64;1720595;83;20577;-81
2022/06/18 06:57:49;;;;;;;;;;;;;;;27.22;43.60;100075.78;1720781;83;20601;-84
2022/06/18 07:00:58;;;;;;;;;;;;;;;27.36;41.75;100073.72;1721245;83;20189;-81
2022/06/18 07:04:01;;;;;;;;;;;;;;;27.36;40.52;100063.89;1686275;84;20592;-84
2022/06/18 07:07:06;;;;;;;;;;;;;;;27.34;40.61;100069.81;1683968;85;20188;-84
2022/06/18 07:10:13;;;;;;;;;;;;;;;27.33;40.15;100064.47;1683986;85;20188;-81
2022/06/18 07:13:12;;;;;;;;;;;;;;;27.40;40.71;100067.80;1681971;85;20252;-81
2022/06/18 07:16:18;;;;;;;;;;;;;;;27.59;39.83;100065.93;1684228;83;20263;-84
2022/06/18 07:19:25;;;;;;;;;;;;;;;27.75;39.81;100067.48;1699717;84;20624;-80
2022/06/18 07:22:29;;;;;;;;;;;;;;;27.72;39.40;100070.91;1701294;84;20236;-84
2022/06/18 07:25:36;;;;;;;;;;;;;;;27.63;39.20;100064.22;1701210;84;20217;-84
2022/06/18 07:28:42;;;;;;;;;;;;;;;27.62;38.81;100068.16;1701682;84;20621;-81
2022/06/18 07:31:47;;;;;;;;;;;;;;;27.56;39.26;100067.08;1701287;83;20157;-81
2022/06/18 07:34:56;;;;;;;;;;;;;;;27.64;39.74;100065.88;1701465;84;20527;-84
2022/06/18 07:38:01;;;;;;;;;;;;;;;27.81;39.19;100066.89;1700045;84;20203;-85
2022/06/18 07:41:07;;;;;;;;;;;;;;;27.86;38.40;100073.02;1701133;84;20220;-81
2022/06/18 07:44:12;;;;;;;;;;;;;;;27.83;38.32;100063.20;1699853;84;20248;-85
2022/06/18 07:47:20;;;;;;;;;;;;;;;27.71;38.39;100071.14;1701255;83;20224;-84
2022/06/18 07:50:29;;;;;;;;;;;;;;;27.45;38.73;100071.39;1701266;84;20200;-84
2022/06/18 07:53:33;;;;;;;;;;;;;;;27.20;38.53;100065.42;1700230;84;20228;-84
2022/06/18 07:56:40;;;;;;;;;;;;;;;27.13;38.61;100072.49;1699913;84;20180;-81
2022/06/18 07:59:44;;;;;;;;;;;;;;;27.14;38.18;100060.96;1699771;84;20216;-81
2022/06/18 08:02:49;;;;;;;;;;;;;;;27.33;38.17;100062.50;1722347;83;20626;-84
2022/06/18 08:05:54;;;;;;;;;;;;;;;27.44;38.73;100059.06;1729998;82;20190;-84
2022/06/18 08:08:59;;;;;;;;;;;;;;;27.29;39.03;100059.16;1728776;83;20226;-84
2022/06/18 08:12:04;;;;;;;;;;;;;;;26.98;38.98;100060.78;1730444;83;20614;-80
2022/06/18 08:15:12;;;;;;;;;;;;;;;26.93;40.83;100058.02;1730622;83;20201;-81
2022/06/18 08:18:17;;;;;;;;;;;;;;;27.14;40.93;100055.91;1721410;83;20209;-81
2022/06/18 08:21:27;;;;;;;;;;;;;;;27.46;40.02;100060.99;1720834;83;20207;-85
2022/06/18 08:24:32;;;;;;;;;;;;;;;27.69;38.64;100057.40;1721241;83;20578;-81
2022/06/18 08:27:37;;;;;;;;;;;;;;;27.84;38.48;100065.44;1721154;83;20618;-85
2022/06/18 08:30:42;;;;;;;;;;;;;;;27.87;37.79;100058.66;1726415;82;20245;-81
2022/06/18 08:33:47;;;;;;;;;;;;;;;27.91;37.45;100055.53;1719133;83;20201;-81
2022/06/18 08:36:50;;;;;;;;;;;;;;;27.96;38.14;100061.09;1719537;83;20233;-85
2022/06/18 08:39:56;;;;;;;;;;;;;;;27.99;37.48;100063.86;1711461;84;20191;-85
2022/06/18 08:43:19;;;;;;;;;;;;;;;27.98;37.42;100057.98;1712874;84;20265;-84
2022/06/18 08:46:48;;;;;;;;;;;;;;;28.00;37.86;100059.94;1682055;85;20606;-81
2022/06/18 08:50:04;;;;;;;;;;;;;;;27.95;37.20;100052.97;1713623;83;20588;-84
2022/06/18 08:53:27;;;;;;;;;;;;;;;27.96;36.84;100056.88;1673051;85;20210;-81
2022/06/18 08:56:35;;;;;;;;;;;;;;;27.97;36.09;100056.31;1671515;85;20209;-81
2022/06/18 09:00:02;;;;;;;;;;;;;;;28.05;35.71;100055.66;1661488;86;20744;-84
2022/06/18 09:03:23;;;;;;;;;;;;;;;28.13;35.38;100054.98;1684666;85;20203;-81
2022/06/18 09:07:01;;;;;;;;;;;;;;;28.17;34.61;100051.84;1688554;85;20600;-81
2022/06/18 09:10:24;;;;;;;;;;;;;;;28.27;34.55;100037.66;1689365;85;20203;-81
2022/06/18 09:13:49;;;;;;;;;;;;;;;28.64;34.98;100044.52;1688845;85;20231;-85
2022/06/18 09:17:15;;;;;;;;;;;;;;;29.02;35.25;100045.95;1676798;85;20229;-84
2022/06/18 09:20:32;;;;;;;;;;;;;;;29.38;33.59;100045.39;1658614;86;20194;-80
2022/06/18 09:24:02;;;;;;;;;;;;;;;29.64;33.74;100048.06;1659512;86;20194;-84
2022/06/18 09:27:10;;;;;;;;;;;;;;;29.82;32.60;100036.44;1658690;86;20669;-84
2022/06/18 09:30:19;;;;;;;;;;;;;;;29.86;33.18;100032.42;1660115;86;20206;-80
2022/06/18 09:33:26;;;;;;;;;;;;;;;29.71;32.32;100042.84;1682042;85;20242;-80
2022/06/18 09:36:45;;;;;;;;;;;;;;;29.38;32.21;100039.19;1715096;83;20192;-81
2022/06/18 09:39:51;;;;;;;;;;;;;;;29.07;32.84;100051.51;1685175;84;20945;-81
2022/06/18 09:43:10;;;;;;;;;;;;;;;29.13;33.94;100048.90;1699780;84;20200;-83
2022/06/18 09:46:18;;;;;;;;;;;;;;;29.26;32.67;100055.71;1699590;84;20185;-84
2022/06/18 09:49:23;;;;;;;;;;;;;;;29.30;32.38;100052.55;1698371;84;20228;-81
2022/06/18 09:52:33;;;;;;;;;;;;;;;29.28;32.36;100048.64;1699882;84;20300;-84
2022/06/18 09:55:40;;;;;;;;;;;;;;;29.16;32.99;100045.45;1699777;84;20232;-80
2022/06/18 09:58:42;;;;;;;;;;;;;;;29.10;32.82;100049.50;1698820;84;20241;-84
2022/06/18 10:01:52;;;;;;;;;;;;;;;29.00;32.97;100044.03;1699741;84;20224;-82
2022/06/18 10:08:03;;;;;;;;;;;;;;;29.01;34.33;100053.58;1699349;84;20204;-81
2022/06/18 10:11:08;;;;;;;;;;;;;;;29.08;34.65;100050.39;1699948;84;20232;-81
2022/06/18 10:14:19;;;;;;;;;;;;;;;29.04;34.00;100045.10;1698667;84;20216;-81
2022/06/18 10:17:35;;;;;;;;;;;;;;;29.08;33.24;100046.70;1698361;84;20611;-85
2022/06/18 10:20:52;;;;;;;;;;;;;;;29.04;33.20;100035.25;1680863;84;20624;-81
2022/06/18 10:24:16;;;;;;;;;;;;;;;28.93;32.93;100030.30;1698758;84;20636;-81
2022/06/18 10:27:25;;;;;;;;;;;;;;;28.76;33.00;100026.63;1698139;84;20272;-85
2022/06/18 10:30:49;;;;;;;;;;;;;;;28.55;33.29;100031.43;1700152;84;20188;-81
2022/06/18 10:34:06;;;;;;;;;;;;;;;28.44;34.28;100016.67;1698607;84;20616;-80
2022/06/18 10:37:31;;;;;;;;;;;;;;;28.56;33.93;100021.84;1699162;84;20204;-81
2022/06/18 10:41:12;;;;;;;;;;;;;;;28.57;33.69;100024.95;1694256;84;20201;-81
2022/06/18 10:44:29;;;;;;;;;;;;;;;28.60;33.82;100022.34;1691794;85;20577;-81
2022/06/18 10:47:42;;;;;;;;;;;;;;;28.59;34.02;100029.12;1692058;85;20596;-85
2022/06/18 10:50:56;;;;;;;;;;;;;;;28.49;34.04;100026.45;1693018;85;20188;-81
2022/06/18 10:54:05;;;;;;;;;;;;;;;28.31;34.13;100023.00;1691818;85;20209;-84
2022/06/18 10:57:11;;;;;;;;;;;;;;;28.10;34.26;100019.63;1693057;85;20201;-81
2022/06/18 11:00:18;;;;;;;;;;;;;;;27.97;34.30;100026.80;1692974;85;20193;-80
2022/06/18 11:03:27;;;;;;;;;;;;;;;27.91;35.25;100032.22;1692922;85;20205;-85
2022/06/18 11:06:32;;;;;;;;;;;;;;;27.85;35.51;100035.62;1680097;85;20604;-80
2022/06/18 11:09:53;;;;;;;;;;;;;;;27.81;35.74;100036.52;1682088;85;20576;-84
2022/06/18 11:13:01;;;;;;;;;;;;;;;27.72;35.16;100048.42;1680900;85;20236;-81
2022/06/18 11:16:27;;;;;;;;;;;;;;;27.56;38.07;100047.42;1681274;85;20207;-84
2022/06/18 11:19:48;;;;;;;;;;;;;;;27.11;39.88;100039.67;1652209;87;20602;-81
2022/06/18 11:22:46;;;;;;;;;;;;;;;26.61;40.30;100051.47;1681281;85;20208;-84
2022/06/18 11:25:55;;;;;;;;;;;;;;;26.23;41.42;100046.28;1680942;85;20606;-85
2022/06/18 11:29:04;;;;;;;;;;;;;;;26.00;42.89;100042.16;1680032;85;20184;-81
2022/06/18 11:32:21;;;;;;;;;;;;;;;25.94;44.01;100043.30;1680843;84;20204;-81
2022/06/18 11:35:29;;;;;;;;;;;;;;;25.94;44.80;100045.27;1680740;85;20200;-80
2022/06/18 11:38:38;;;;;;;;;;;;;;;25.89;45.68;100039.12;1679753;85;20188;-80
2022/06/18 11:41:47;;;;;;;;;;;;;;;25.97;45.81;100048.88;1683910;84;20492;-84
2022/06/18 11:44:58;;;;;;;;;;;;;;;25.94;45.45;100043.87;1685440;85;20188;-84
2022/06/18 11:48:14;;;;;;;;;;;;;;;25.86;45.16;100050.05;1685076;84;20655;-84
2022/06/18 11:51:34;;;;;;;;;;;;;;;25.66;46.37;100050.33;1685089;85;20650;-85
2022/06/18 11:55:11;;;;;;;;;;;;;;;25.46;46.22;100054.56;1685393;85;20207;-84
2022/06/18 11:58:50;;;;;;;;;;;;;;;25.22;46.52;100045.34;1684595;85;20204;-81
2022/06/18 12:02:05;;;;;;;;;;;;;;;25.11;46.46;100037.20;1685179;84;20204;-84
2022/06/18 12:05:22;;;;;;;;;;;;;;;25.11;48.98;100033.84;1684024;85;20220;-81
2022/06/18 12:08:28;;;;;;;;;;;;;;;25.07;50.00;100034.64;1684628;85;20228;-84
2022/06/18 12:12:13;;;;;;;;;;;;;;;25.11;49.82;100026.84;1685038;85;20507;-81
2022/06/18 12:15:25;;;;;;;;;;;;;;;25.20;49.21;100027.97;1685378;85;20204;-85
2022/06/18 12:18:33;;;;;;;;;;;;;;;25.30;47.74;100033.28;1667832;85;20204;-81
2022/06/18 12:21:49;;;;;;;;;;;;;;;25.36;48.17;100037.75;1685359;85;20187;-85
2022/06/18 12:25:00;;;;;;;;;;;;;;;25.34;47.67;100030.20;1685396;85;20204;-84
2022/06/18 12:28:08;;;;;;;;;;;;;;;25.41;47.16;100027.98;1685709;85;20635;-85
2022/06/18 12:31:22;;;;;;;;;;;;;;;25.52;47.59;100035.23;1683725;84;20236;-81
2022/06/18 12:34:33;;;;;;;;;;;;;;;25.63;46.79;100026.25;1685323;85;20204;-84
2022/06/18 12:37:41;;;;;;;;;;;;;;;25.77;46.52;100018.97;1685517;85;20592;-84
2022/06/18 12:40:55;;;;;;;;;;;;;;;25.84;46.36;100024.29;1685693;85;20192;-85
2022/06/18 12:44:09;;;;;;;;;;;;;;;25.81;45.58;100019.25;1685129;85;20663;-85
2022/06/18 12:47:44;;;;;;;;;;;;;;;25.84;46.35;100020.92;1685448;84;20220;-84
2022/06/18 12:51:06;;;;;;;;;;;;;;;25.91;45.94;100014.44;1685256;85;20231;-84
2022/06/18 12:54:16;;;;;;;;;;;;;;;26.00;45.46;100011.89;1683824;85;20628;-84
2022/06/18 12:57:26;;;;;;;;;;;;;;;26.02;45.30;100010.20;1683868;85;20196;-81
2022/06/18 13:00:34;;;;;;;;;;;;;;;26.13;45.21;100002.88;1685199;85;20204;-81
2022/06/18 13:03:49;;;;;;;;;;;;;;;26.29;43.22;100002.80;1683763;85;20192;-85
2022/06/18 13:07:07;;;;;;;;;;;;;;;26.45;43.36;100003.89;1685483;85;20192;-81
2022/06/18 13:10:29;;;;;;;;;;;;;;;26.52;42.64;100003.55;1685299;85;20663;-84
2022/06/18 13:13:51;;;;;;;;;;;;;;;26.56;41.82;100003.25;1684205;85;20599;-84
2022/06/18 13:16:59;;;;;;;;;;;;;;;26.65;41.16;99996.47;1696552;83;20219;-81
2022/06/18 13:20:00;;;;;;;;;;;;;;;26.74;40.37;99994.16;1728757;83;20225;-84
2022/06/18 13:28:10;;;;;;;;;;;;;;;26.81;39.73;99990.18;1729322;83;20218;-84
2022/06/18 13:29:32;;;;;;;;;;;;;;;26.79;39.53;99996.66;1728550;83;20210;-80
2022/06/18 13:32:38;;;;;;;;;;;;;;;26.84;39.63;99996.05;1729918;83;20194;-80
2022/06/18 13:35:47;;;;;;;;;;;;;;;26.93;39.04;100000.48;1730599;83;20190;-84
2022/06/18 13:39:08;;;;;;;;;;;;;;;27.01;38.90;99992.85;1729505;83;20182;-84
2022/06/18 13:42:18;;;;;;;;;;;;;;;27.13;39.00;99998.94;1728909;82;20895;-80
2022/06/18 13:45:34;;;;;;;;;;;;;;;27.26;40.79;99995.46;1724945;83;20198;-81
2022/06/18 13:49:17;;;;;;;;;;;;;;;27.34;40.38;100004.39;1723419;83;20245;-83
2022/06/18 13:52:22;;;;;;;;;;;;;;;27.30;40.85;100005.55;1724677;83;20226;-84
2022/06/18 13:55:39;;;;;;;;;;;;;;;27.21;40.05;100006.73;1725045;83;20226;-80
2022/06/18 13:58:46;;;;;;;;;;;;;;;27.15;39.39;100007.92;1723442;83;20605;-80
2022/06/18 14:01:59;;;;;;;;;;;;;;;27.02;39.25;100004.34;1725085;83;20205;-84
2022/06/18 14:05:19;;;;;;;;;;;;;;;26.91;39.19;100009.20;1725167;83;20202;-80
2022/06/18 14:08:38;;;;;;;;;;;;;;;26.85;39.26;100008.11;1724931;83;20661;-84
2022/06/18 14:11:47;;;;;;;;;;;;;;;26.79;39.27;100010.13;1724974;83;20701;-84
2022/06/18 14:14:51;;;;;;;;;;;;;;;26.71;39.51;100008.76;1724799;83;20629;-83
2022/06/18 14:18:00;;;;;;;;;;;;;;;26.67;39.04;100004.85;1709036;83;20594;-84
2022/06/18 14:21:07;;;;;;;;;;;;;;;26.62;39.41;100006.30;1679701;85;20196;-80
2022/06/18 14:24:13;;;;;;;;;;;;;;;26.55;39.42;100007.19;1694616;85;20228;-80
2022/06/18 14:27:41;;;;;;;;;;;;;;;26.47;39.23;100007.80;1694556;85;20200;-80
2022/06/18 14:30:49;;;;;;;;;;;;;;;26.36;39.09;100000.55;1694661;85;20188;-84
2022/06/18 14:34:06;;;;;;;;;;;;;;;26.21;39.01;100006.50;1691299;84;20255;-83
2022/06/18 14:37:14;;;;;;;;;;;;;;;26.14;39.21;100011.56;1694521;85;20208;-80
2022/06/18 14:40:24;;;;;;;;;;;;;;;26.08;39.28;100011.88;1693629;85;20201;-83
2022/06/18 14:43:35;;;;;;;;;;;;;;;25.93;40.19;100023.42;1694633;84;20240;-83
2022/06/18 14:47:01;;;;;;;;;;;;;;;25.80;41.82;100021.77;1699652;84;20240;-83
2022/06/18 14:50:41;;;;;;;;;;;;;;;25.62;42.38;100027.37;1698573;84;20354;-80
2022/06/18 14:53:52;;;;;;;;;;;;;;;25.43;44.87;100038.32;1670751;84;20187;-81
2022/06/18 14:57:15;;;;;;;;;;;;;;;25.07;47.49;100039.70;1669813;85;20214;-80
2022/06/18 15:00:33;;;;;;;;;;;;;;;24.71;49.37;100047.20;1670307;86;20238;-80
2022/06/18 15:03:54;;;;;;;;;;;;;;;24.44;51.63;100050.19;1670844;86;20206;-81
2022/06/18 15:06:59;;;;;;;;;;;;;;;24.16;52.69;100050.87;1671234;86;20614;-83
2022/06/18 15:10:02;;;;;;;;;;;;;;;23.90;54.26;100058.83;1670549;86;20224;-80
2022/06/18 15:13:06;;;;;;;;;;;;;;;23.66;54.10;100062.59;1671562;85;20194;-83
2022/06/18 15:16:27;;;;;;;;;;;;;;;23.44;54.08;100064.09;1687035;84;20660;-83
2022/06/18 15:19:41;;;;;;;;;;;;;;;23.25;55.52;100062.26;1699080;84;20208;-84
2022/06/18 15:26:00;;;;;;;;;;;;;;;22.83;55.78;100055.13;1682306;84;20214;-84
2022/06/18 15:29:16;;;;;;;;;;;;;;;22.67;55.49;100068.89;1698082;84;20239;-83
2022/06/18 15:32:17;;;;;;;;;;;;;;;22.52;56.20;100074.84;1686442;84;20205;-83
2022/06/18 15:35:16;;;;;;;;;;;;;;;22.37;57.36;100088.89;1692325;85;20657;-81
2022/06/18 15:38:38;;;;;;;;;;;;;;;22.26;58.97;100091.27;1692768;85;20194;-84
2022/06/18 15:41:52;;;;;;;;;;;;;;;22.13;59.98;100093.88;1691336;84;20214;-83
2022/06/18 15:45:04;;;;;;;;;;;;;;;22.05;60.17;100092.88;1669283;86;20183;-81
2022/06/18 15:48:15;;;;;;;;;;;;;;;21.94;60.54;100091.06;1694324;84;20723;-81
2022/06/18 15:51:31;;;;;;;;;;;;;;;21.84;60.84;100096.48;1672772;84;20521;-80
2022/06/18 15:54:48;;;;;;;;;;;;;;;21.76;60.81;100088.56;1695403;84;20206;-84
2022/06/18 15:57:52;;;;;;;;;;;;;;;21.71;60.47;100096.84;1689420;84;20625;-83
2022/06/18 16:00:50;;;;;;;;;;;;;;;21.61;60.59;100100.31;1683668;85;20208;-85
2022/06/18 16:03:53;;;;;;;;;;;;;;;21.54;60.79;100106.02;1691880;84;20226;-80
2022/06/18 16:06:58;;;;;;;;;;;;;;;21.47;61.16;100102.59;1687919;84;20206;-83
2022/06/18 16:10:23;;;;;;;;;;;;;;;21.41;61.55;100099.44;1691880;84;20217;-83
2022/06/18 16:13:32;;;;;;;;;;;;;;;21.34;61.81;100094.56;1661044;86;20716;-83
2022/06/18 16:16:41;;;;;;;;;;;;;;;21.30;61.95;100103.92;1676842;83;20609;-83
2022/06/18 16:19:51;;;;;;;;;;;;;;;21.26;62.04;100109.70;1720670;83;20207;-84
2022/06/18 16:23:07;;;;;;;;;;;;;;;21.24;62.08;100117.45;1720872;83;20215;-82
2022/06/18 16:26:12;;;;;;;;;;;;;;;21.24;62.16;100129.98;1719780;83;20191;-83
2022/06/18 16:29:22;;;;;;;;;;;;;;;21.20;62.62;100134.34;1720182;83;20253;-83